createdAt,value
2018-08-30T00:01:13.534Z,15.20
2018-08-30T00:03:43.995Z,15.20
2018-08-30T00:06:14.348Z,15.20
2018-08-30T00:08:44.801Z,15.10
2018-08-30T00:11:16.228Z,15.10
2018-08-30T00:13:46.559Z,15.20
2018-08-30T00:16:17.431Z,15.20
2018-08-30T00:18:47.902Z,15.20
2018-08-30T00:21:19.200Z,15.10
2018-08-30T00:23:50.045Z,15.10
2018-08-30T00:26:20.374Z,15.10
2018-08-30T00:28:51.770Z,15.10
2018-08-30T00:31:22.096Z,15.10
2018-08-30T00:33:52.763Z,15.10
2018-08-30T00:36:23.116Z,15.10
2018-08-30T00:38:53.444Z,15.10
2018-08-30T00:41:23.899Z,15.00
2018-08-30T00:43:54.178Z,15.00
2018-08-30T00:46:24.608Z,14.90
2018-08-30T00:48:54.976Z,14.80
2018-08-30T00:51:25.328Z,14.80
2018-08-30T00:53:55.758Z,14.80
2018-08-30T00:56:26.136Z,14.80
2018-08-30T00:58:56.529Z,14.80
2018-08-30T01:01:26.886Z,14.80
2018-08-30T01:03:57.261Z,14.80
2018-08-30T01:06:27.622Z,14.70
2018-08-30T01:08:58.602Z,14.70
2018-08-30T01:11:29.316Z,14.70
2018-08-30T01:13:59.617Z,14.60
2018-08-30T01:16:31.028Z,14.60
2018-08-30T01:19:02.230Z,14.60
2018-08-30T01:21:32.512Z,14.50
2018-08-30T01:24:03.963Z,14.50
2018-08-30T01:26:34.374Z,14.50
2018-08-30T01:29:04.820Z,14.50
2018-08-30T01:31:35.201Z,14.50
2018-08-30T01:34:06.600Z,14.40
2018-08-30T01:36:37.261Z,14.40
2018-08-30T01:39:08.238Z,14.40
2018-08-30T01:41:38.687Z,14.40
2018-08-30T01:44:10.289Z,14.40
2018-08-30T01:46:40.704Z,14.30
2018-08-30T01:49:11.341Z,14.30
2018-08-30T01:51:41.865Z,14.30
2018-08-30T01:54:12.265Z,14.30
2018-08-30T01:56:42.668Z,14.30
2018-08-30T01:59:13.542Z,14.30
2018-08-30T02:01:43.841Z,14.20
2018-08-30T02:04:14.687Z,14.30
2018-08-30T02:06:45.100Z,14.20
2018-08-30T02:09:15.413Z,14.20
2018-08-30T02:11:46.335Z,14.20
2018-08-30T02:14:17.103Z,14.20
2018-08-30T02:16:47.665Z,14.20
2018-08-30T02:19:18.037Z,14.10
2018-08-30T02:21:48.469Z,14.10
2018-08-30T02:24:18.919Z,14.00
2018-08-30T02:26:49.345Z,14.00
2018-08-30T02:29:19.875Z,14.00
2018-08-30T02:31:50.484Z,14.00
2018-08-30T02:34:20.821Z,14.00
2018-08-30T02:36:52.063Z,13.90
2018-08-30T02:39:22.824Z,13.90
2018-08-30T02:41:53.397Z,13.90
2018-08-30T02:44:26.106Z,13.90
2018-08-30T02:46:57.593Z,13.90
2018-08-30T02:49:28.654Z,13.80
2018-08-30T02:51:58.978Z,13.90
2018-08-30T02:54:29.781Z,13.80
2018-08-30T02:57:00.174Z,13.80
2018-08-30T02:59:30.981Z,13.80
2018-08-30T03:02:01.326Z,13.80
2018-08-30T03:04:32.476Z,13.80
2018-08-30T03:07:02.781Z,13.80
2018-08-30T03:09:33.189Z,13.80
2018-08-30T03:12:03.541Z,13.80
2018-08-30T03:14:33.930Z,13.70
2018-08-30T03:17:04.296Z,13.70
2018-08-30T03:19:34.668Z,13.70
2018-08-30T03:22:05.001Z,13.70
2018-08-30T03:24:35.288Z,13.70
2018-08-30T03:27:05.600Z,13.60
2018-08-30T03:29:35.921Z,13.70
2018-08-30T03:32:06.413Z,13.60
2018-08-30T03:34:36.760Z,13.60
2018-08-30T03:37:07.151Z,13.50
2018-08-30T03:39:37.430Z,13.50
2018-08-30T03:42:07.813Z,13.50
2018-08-30T03:44:38.167Z,13.50
2018-08-30T03:47:08.883Z,13.50
2018-08-30T03:49:39.905Z,13.50
2018-08-30T03:52:10.894Z,13.50
2018-08-30T03:54:42.161Z,13.50
2018-08-30T03:57:12.742Z,13.50
2018-08-30T03:59:43.324Z,13.40
2018-08-30T04:02:13.698Z,13.50
2018-08-30T04:04:44.093Z,13.50
2018-08-30T04:07:15.257Z,13.50
2018-08-30T04:09:45.636Z,13.40
2018-08-30T04:12:17.781Z,13.50
2018-08-30T04:14:48.590Z,13.50
2018-08-30T04:17:19.300Z,13.50
2018-08-30T04:19:49.727Z,13.40
2018-08-30T04:22:20.141Z,13.40
2018-08-30T04:24:50.484Z,13.40
2018-08-30T04:27:20.845Z,13.40
2018-08-30T04:29:51.241Z,13.40
2018-08-30T04:32:21.585Z,13.40
2018-08-30T04:34:52.172Z,13.40
2018-08-30T04:37:22.553Z,13.40
2018-08-30T04:39:52.897Z,13.50
2018-08-30T04:42:23.927Z,13.50
2018-08-30T04:44:54.218Z,13.50
2018-08-30T04:47:24.925Z,13.40
2018-08-30T04:49:55.641Z,13.50
2018-08-30T04:52:26.476Z,13.50
2018-08-30T04:54:56.817Z,13.50
2018-08-30T04:57:27.259Z,13.50
2018-08-30T04:59:58.152Z,13.50
2018-08-30T05:02:28.540Z,13.60
2018-08-30T05:04:59.105Z,13.60
2018-08-30T05:07:29.595Z,13.60
2018-08-30T05:10:01.303Z,13.70
2018-08-30T05:12:31.841Z,13.70
2018-08-30T05:15:02.211Z,13.80
2018-08-30T05:17:33.376Z,13.80
2018-08-30T05:20:04.866Z,13.80
2018-08-30T05:22:36.918Z,13.80
2018-08-30T05:25:08.122Z,13.90
2018-08-30T05:27:41.961Z,14.00
2018-08-30T05:30:15.617Z,14.10
2018-08-30T05:32:47.971Z,14.20
2018-08-30T05:35:19.283Z,14.30
2018-08-30T05:37:52.233Z,14.40
2018-08-30T05:40:30.593Z,14.40
2018-08-30T05:43:00.924Z,14.50
2018-08-30T05:45:32.276Z,14.50
2018-08-30T05:48:02.668Z,14.50
2018-08-30T05:50:33.629Z,14.60
2018-08-30T05:53:04.037Z,14.60
2018-08-30T05:55:36.757Z,14.60
2018-08-30T05:58:08.013Z,14.70
2018-08-30T06:00:38.469Z,14.70
2018-08-30T06:03:09.965Z,14.80
2018-08-30T06:05:41.309Z,14.90
2018-08-30T06:08:12.460Z,15.00
2018-08-30T06:10:53.828Z,15.10
2018-08-30T06:13:26.397Z,15.20
2018-08-30T06:16:14.669Z,15.30
2018-08-30T06:18:45.059Z,15.40
2018-08-30T06:21:17.114Z,15.40
2018-08-30T06:23:48.378Z,15.50
2018-08-30T06:26:22.654Z,15.60
2018-08-30T06:28:55.008Z,15.60
2018-08-30T06:31:27.281Z,15.70
2018-08-30T06:33:58.864Z,15.70
2018-08-30T06:36:29.874Z,15.80
2018-08-30T06:39:01.313Z,15.90
2018-08-30T06:41:31.825Z,16.00
2018-08-30T06:44:02.926Z,16.00
2018-08-30T06:46:34.458Z,16.00
2018-08-30T06:49:04.964Z,16.20
2018-08-30T06:51:35.685Z,16.20
2018-08-30T06:54:06.176Z,16.40
2018-08-30T06:56:36.527Z,16.50
2018-08-30T06:59:07.657Z,16.50
2018-08-30T07:01:40.119Z,16.50
2018-08-30T07:09:13.283Z,16.60
2018-08-30T07:11:46.921Z,16.70
2018-08-30T07:14:17.537Z,16.90
2018-08-30T07:16:48.695Z,17.00
2018-08-30T07:19:19.044Z,17.10
2018-08-30T07:21:50.072Z,17.20
2018-08-30T07:24:24.808Z,17.20
2018-08-30T07:26:55.129Z,17.30
2018-08-30T07:29:26.581Z,17.40
2018-08-30T07:32:18.137Z,17.50
2018-08-30T07:34:49.297Z,17.50
2018-08-30T07:37:23.834Z,17.70
2018-08-30T07:39:56.048Z,17.80
2018-08-30T07:42:29.434Z,17.80
2018-08-30T07:45:00.437Z,17.90
2018-08-30T07:47:31.396Z,18.00
2018-08-30T07:50:19.551Z,18.10
2018-08-30T07:52:50.787Z,18.20
2018-08-30T07:55:21.311Z,18.30
2018-08-30T07:57:53.040Z,18.30
2018-08-30T08:00:26.054Z,18.40
2018-08-30T08:03:04.111Z,18.50
2018-08-30T08:05:37.746Z,18.50
2018-08-30T08:08:08.368Z,18.60
2018-08-30T08:10:39.961Z,18.80
2018-08-30T08:13:12.705Z,18.80
2018-08-30T08:15:44.072Z,18.90
2018-08-30T08:18:16.304Z,19.10
2018-08-30T08:20:48.413Z,19.20
2018-08-30T08:23:20.858Z,19.30
2018-08-30T08:25:52.828Z,19.40
2018-08-30T08:28:24.244Z,19.50
2018-08-30T08:30:54.610Z,19.70
2018-08-30T08:33:25.393Z,19.70
2018-08-30T08:35:57.210Z,19.80
2018-08-30T08:38:27.559Z,19.90
2018-08-30T08:40:57.993Z,20.10
2018-08-30T08:43:28.744Z,20.20
2018-08-30T08:45:59.116Z,20.30
2018-08-30T08:48:31.228Z,20.40
2018-08-30T08:51:02.962Z,20.50
2018-08-30T08:53:33.314Z,20.50
2018-08-30T08:56:03.934Z,20.60
2018-08-30T08:58:35.603Z,20.70
2018-08-30T09:01:05.989Z,20.80
2018-08-30T09:03:37.713Z,20.90
2018-08-30T09:06:09.044Z,21.10
2018-08-30T09:08:39.558Z,21.30
2018-08-30T09:11:10.998Z,21.40
2018-08-30T09:13:41.988Z,21.60
2018-08-30T09:16:12.990Z,21.70
2018-08-30T09:18:43.717Z,21.80
2018-08-30T09:21:14.910Z,21.80
2018-08-30T09:23:46.461Z,21.90
2018-08-30T09:26:17.616Z,22.00
2018-08-30T09:28:48.025Z,22.10
2018-08-30T09:31:18.421Z,22.10
2018-08-30T09:33:51.210Z,22.20
2018-08-30T09:36:21.993Z,22.30
2018-08-30T09:38:52.620Z,22.30
2018-08-30T09:41:22.984Z,22.40
2018-08-30T09:43:53.420Z,22.50
2018-08-30T09:46:24.141Z,22.60
2018-08-30T09:48:57.113Z,22.80
2018-08-30T09:51:28.268Z,23.10
2018-08-30T09:54:00.026Z,23.30
2018-08-30T09:56:32.258Z,23.60
2018-08-30T09:59:03.468Z,23.70
2018-08-30T10:01:40.085Z,23.80
2018-08-30T10:04:12.611Z,24.00
2018-08-30T10:06:45.804Z,24.20
2018-08-30T10:09:18.456Z,24.40
2018-08-30T10:11:50.282Z,24.90
2018-08-30T10:14:24.253Z,25.10
2018-08-30T10:16:56.263Z,25.30
2018-08-30T10:19:27.413Z,25.60
2018-08-30T10:21:57.799Z,25.90
2018-08-30T10:24:28.546Z,26.10
2018-08-30T10:27:00.906Z,26.30
2018-08-30T10:29:36.308Z,26.20
2018-08-30T10:32:07.561Z,26.00
2018-08-30T10:34:38.899Z,25.90
2018-08-30T10:37:09.223Z,26.20
2018-08-30T10:39:39.680Z,26.50
2018-08-30T10:42:12.137Z,26.80
2018-08-30T10:44:42.572Z,27.10
2018-08-30T10:47:13.924Z,27.10
2018-08-30T10:49:45.917Z,26.70
2018-08-30T10:52:21.616Z,26.10
2018-08-30T10:54:53.456Z,26.20
2018-08-30T10:57:24.649Z,26.70
2018-08-30T10:59:55.656Z,27.20
2018-08-30T11:02:26.151Z,27.50
2018-08-30T11:05:03.046Z,27.70
2018-08-30T11:07:33.530Z,28.10
2018-08-30T11:10:05.576Z,28.40
2018-08-30T11:12:36.515Z,28.30
2018-08-30T11:15:07.591Z,28.30
2018-08-30T11:17:38.034Z,28.30
2018-08-30T11:20:19.701Z,28.40
2018-08-30T11:22:51.001Z,28.70
2018-08-30T11:25:21.374Z,28.70
2018-08-30T11:27:52.863Z,28.90
2018-08-30T11:30:24.308Z,28.90
2018-08-30T11:32:59.525Z,28.60
2018-08-30T11:35:30.646Z,28.20
2018-08-30T11:38:01.442Z,27.50
2018-08-30T11:40:31.980Z,27.10
2018-08-30T11:43:03.226Z,26.80
2018-08-30T11:45:33.765Z,26.40
2018-08-30T11:48:04.156Z,26.30
2018-08-30T11:50:36.225Z,26.00
2018-08-30T11:53:06.999Z,25.80
2018-08-30T11:55:37.322Z,25.70
2018-08-30T11:58:07.784Z,25.60
2018-08-30T12:00:38.353Z,25.50
2018-08-30T12:03:08.801Z,25.50
2018-08-30T12:05:40.549Z,25.30
2018-08-30T12:08:10.983Z,25.40
2018-08-30T12:10:41.476Z,25.50
2018-08-30T12:13:11.793Z,25.80
2018-08-30T12:15:42.046Z,26.00
2018-08-30T12:18:12.386Z,25.90
2018-08-30T12:20:43.570Z,25.70
2018-08-30T12:23:13.816Z,25.80
2018-08-30T12:25:44.336Z,25.80
2018-08-30T12:28:14.685Z,26.00
2018-08-30T12:30:45.100Z,26.30
2018-08-30T12:33:18.519Z,26.70
2018-08-30T12:35:55.932Z,27.20
2018-08-30T12:38:26.119Z,28.20
2018-08-30T12:40:56.594Z,29.10
2018-08-30T12:43:28.124Z,29.60
2018-08-30T12:45:58.287Z,30.10
2018-08-30T12:48:29.203Z,30.50
2018-08-30T12:51:00.293Z,30.20
2018-08-30T12:53:30.611Z,30.70
2018-08-30T12:56:02.630Z,31.20
2018-08-30T12:58:35.235Z,31.60
2018-08-30T13:01:07.348Z,31.70
2018-08-30T13:03:37.809Z,31.50
2018-08-30T13:06:08.346Z,31.70
2018-08-30T13:08:38.654Z,31.90
2018-08-30T13:11:09.779Z,31.70
2018-08-30T13:13:41.488Z,31.00
2018-08-30T13:16:13.176Z,30.70
2018-08-30T13:18:43.537Z,30.10
2018-08-30T13:21:13.795Z,29.70
2018-08-30T13:23:45.835Z,29.50
2018-08-30T13:26:16.276Z,29.40
2018-08-30T13:28:46.958Z,29.10
2018-08-30T13:31:18.904Z,29.00
2018-08-30T13:33:50.789Z,28.80
2018-08-30T13:36:21.514Z,28.70
2018-08-30T13:38:51.795Z,28.60
2018-08-30T13:41:22.741Z,28.40
2018-08-30T13:43:53.756Z,28.20
2018-08-30T13:46:24.991Z,28.00
2018-08-30T13:48:57.974Z,27.90
2018-08-30T13:51:31.529Z,27.60
2018-08-30T13:54:03.178Z,27.70
2018-08-30T13:56:37.449Z,27.90
2018-08-30T13:59:10.581Z,28.00
2018-08-30T14:01:49.711Z,28.00
2018-08-30T14:04:26.946Z,28.10
2018-08-30T14:06:58.949Z,28.30
2018-08-30T14:09:31.150Z,28.30
2018-08-30T14:12:02.363Z,28.40
2018-08-30T14:14:39.072Z,28.40
2018-08-30T14:17:09.978Z,28.40
2018-08-30T14:19:41.068Z,28.20
2018-08-30T14:22:16.161Z,28.10
2018-08-30T14:24:47.702Z,28.10
2018-08-30T14:27:18.033Z,28.10
2018-08-30T14:29:51.225Z,28.00
2018-08-30T14:32:21.617Z,27.90
2018-08-30T14:34:51.919Z,27.70
2018-08-30T14:37:22.953Z,27.50
2018-08-30T14:39:53.298Z,27.50
2018-08-30T14:42:23.625Z,27.60
2018-08-30T14:44:54.010Z,27.70
2018-08-30T14:47:25.414Z,27.90
2018-08-30T14:50:04.453Z,27.90
2018-08-30T14:52:35.487Z,28.00
2018-08-30T14:55:07.032Z,28.30
2018-08-30T14:57:39.128Z,28.50
2018-08-30T15:00:12.264Z,28.80
2018-08-30T15:02:42.597Z,28.60
2018-08-30T15:05:13.431Z,28.60
2018-08-30T15:07:43.657Z,28.40
2018-08-30T15:10:14.133Z,27.90
2018-08-30T15:12:44.542Z,27.60
2018-08-30T15:15:15.423Z,27.50
2018-08-30T15:17:45.849Z,27.20
2018-08-30T15:20:23.402Z,27.00
2018-08-30T15:22:54.503Z,26.80
2018-08-30T15:25:26.322Z,26.60
2018-08-30T15:27:59.612Z,26.40
2018-08-30T15:30:38.179Z,26.10
2018-08-30T15:33:09.489Z,26.00
2018-08-30T15:35:41.566Z,25.80
2018-08-30T15:38:22.842Z,25.70
2018-08-30T15:40:55.481Z,25.70
2018-08-30T15:43:25.794Z,25.70
2018-08-30T15:46:00.437Z,25.90
2018-08-30T15:48:32.467Z,26.40
2018-08-30T15:51:03.109Z,27.20
2018-08-30T15:53:36.657Z,28.00
2018-08-30T15:58:49.244Z,29.30
2018-08-30T16:01:21.475Z,29.40
2018-08-30T16:03:56.284Z,29.20
2018-08-30T16:06:36.168Z,29.20
2018-08-30T16:09:12.417Z,29.10
2018-08-30T16:11:42.886Z,28.90
2018-08-30T16:14:14.842Z,28.60
2018-08-30T16:16:45.433Z,28.40
2018-08-30T16:19:28.093Z,28.10
2018-08-30T16:22:02.849Z,27.90
2018-08-30T16:24:44.238Z,27.80
2018-08-30T16:27:15.246Z,27.80
2018-08-30T16:29:46.971Z,27.70
2018-08-30T16:32:17.999Z,27.40
2018-08-30T16:34:48.701Z,27.00
2018-08-30T16:37:19.096Z,26.70
2018-08-30T16:39:50.822Z,26.30
2018-08-30T16:42:24.002Z,26.00
2018-08-30T16:44:54.797Z,25.70
2018-08-30T16:47:30.528Z,25.30
2018-08-30T16:50:01.089Z,25.10
2018-08-30T16:52:37.621Z,24.80
2018-08-30T16:55:17.813Z,24.60
2018-08-30T16:57:52.837Z,24.40
2018-08-30T17:00:28.054Z,24.20
2018-08-30T17:03:06.307Z,24.00
2018-08-30T17:05:40.398Z,23.90
2018-08-30T17:11:03.132Z,23.50
2018-08-30T17:13:36.966Z,23.30
2018-08-30T17:16:21.411Z,23.10
2018-08-30T17:19:13.165Z,23.00
2018-08-30T17:21:44.393Z,22.80
2018-08-30T17:24:40.412Z,22.70
2018-08-30T17:27:11.862Z,22.60
2018-08-30T17:29:42.257Z,22.40
2018-08-30T17:32:14.128Z,22.40
2018-08-30T17:34:45.797Z,22.20
2018-08-30T17:37:16.564Z,22.10
2018-08-30T17:39:46.896Z,22.00
2018-08-30T17:42:18.569Z,21.90
2018-08-30T17:44:49.911Z,21.70
2018-08-30T17:47:20.555Z,21.60
2018-08-30T17:49:53.084Z,21.50
2018-08-30T17:52:49.356Z,21.40
2018-08-30T17:55:20.267Z,21.30
2018-08-30T17:57:52.170Z,21.20
2018-08-30T18:00:23.377Z,21.10
2018-08-30T18:02:55.071Z,21.10
2018-08-30T18:05:27.709Z,21.00
2018-08-30T18:07:58.509Z,20.90
2018-08-30T18:10:29.160Z,20.90
2018-08-30T18:12:59.492Z,20.90
2018-08-30T18:15:29.974Z,20.80
2018-08-30T18:18:00.384Z,20.70
2018-08-30T18:20:30.708Z,20.70
2018-08-30T18:23:01.077Z,20.60
2018-08-30T18:25:31.884Z,20.50
2018-08-30T18:28:02.500Z,20.40
2018-08-30T18:30:35.261Z,20.40
2018-08-30T18:33:07.217Z,20.30
2018-08-30T18:35:41.173Z,20.40
2018-08-30T18:38:12.534Z,20.20
2018-08-30T18:40:43.536Z,20.20
2018-08-30T18:43:13.857Z,20.00
2018-08-30T18:45:44.981Z,20.00
2018-08-30T18:48:15.484Z,20.00
2018-08-30T18:50:45.907Z,20.00
2018-08-30T18:53:16.396Z,19.90
2018-08-30T18:55:46.865Z,19.90
2018-08-30T18:58:18.338Z,19.90
2018-08-30T19:00:49.370Z,19.80
2018-08-30T19:03:20.682Z,19.80
2018-08-30T19:05:52.321Z,19.80
2018-08-30T19:08:23.263Z,19.70
2018-08-30T19:10:53.851Z,19.70
2018-08-30T19:13:24.262Z,19.60
2018-08-30T19:16:00.726Z,19.60
2018-08-30T19:18:37.318Z,19.60
2018-08-30T19:21:08.362Z,19.60
2018-08-30T19:23:39.568Z,19.60
2018-08-30T19:26:11.667Z,19.50
2018-08-30T19:28:42.021Z,19.50
2018-08-30T19:31:15.265Z,19.40
2018-08-30T19:33:46.733Z,19.50
2018-08-30T19:36:24.866Z,19.40
2018-08-30T19:38:55.263Z,19.40
2018-08-30T19:41:25.801Z,19.40
2018-08-30T19:43:59.823Z,19.40
2018-08-30T19:46:30.476Z,19.40
2018-08-30T19:49:01.857Z,19.40
2018-08-30T19:51:33.084Z,19.40
2018-08-30T19:54:03.466Z,19.40
2018-08-30T19:56:34.535Z,19.40
2018-08-30T19:59:06.644Z,19.40
2018-08-30T20:01:36.956Z,19.50
2018-08-30T20:04:07.327Z,19.50
2018-08-30T20:06:38.462Z,19.50
2018-08-30T20:09:09.094Z,19.40
2018-08-30T20:11:39.877Z,19.40
2018-08-30T20:14:10.244Z,19.40
2018-08-30T20:16:40.669Z,19.40
2018-08-30T20:19:11.912Z,19.40
2018-08-30T20:21:43.082Z,19.40
2018-08-30T20:24:16.678Z,19.40
2018-08-30T20:26:48.958Z,19.30
2018-08-30T20:29:19.422Z,19.40
2018-08-30T20:31:49.980Z,19.30
2018-08-30T20:34:20.365Z,19.30
2018-08-30T20:36:53.373Z,19.20
2018-08-30T20:39:23.868Z,19.20
2018-08-30T20:41:55.312Z,19.20
2018-08-30T20:44:25.681Z,19.20
2018-08-30T20:46:56.018Z,19.10
2018-08-30T20:49:29.777Z,19.10
2018-08-30T20:52:00.857Z,19.10
2018-08-30T20:54:31.196Z,19.10
2018-08-30T20:57:01.577Z,19.10
2018-08-30T20:59:33.207Z,19.00
2018-08-30T21:02:03.715Z,19.00
2018-08-30T21:04:33.937Z,18.90
2018-08-30T21:07:04.334Z,19.00
2018-08-30T21:09:34.761Z,18.90
2018-08-30T21:12:06.024Z,18.80
2018-08-30T21:14:36.343Z,18.80
2018-08-30T21:17:07.200Z,18.80
2018-08-30T21:19:38.606Z,18.80
2018-08-30T21:22:09.208Z,18.80
2018-08-30T21:24:39.752Z,18.80
2018-08-30T21:27:10.110Z,18.70
2018-08-30T21:29:40.626Z,18.70
2018-08-30T21:32:11.317Z,18.70
2018-08-30T21:34:41.840Z,18.60
2018-08-30T21:37:12.229Z,18.60
2018-08-30T21:39:42.620Z,18.50
2018-08-30T21:42:13.277Z,18.40
2018-08-30T21:44:43.673Z,18.40
2018-08-30T21:47:15.293Z,18.40
2018-08-30T21:49:47.249Z,18.30
2018-08-30T21:52:19.232Z,18.30
2018-08-30T21:54:50.264Z,18.30
2018-08-30T21:57:28.230Z,18.30
2018-08-30T21:59:58.966Z,18.20
2018-08-30T22:02:31.256Z,18.30
2018-08-30T22:05:07.206Z,18.20
2018-08-30T22:07:42.637Z,18.20
2018-08-30T22:10:13.064Z,18.10
2018-08-30T22:12:45.949Z,18.10
2018-08-30T22:15:16.340Z,18.00
2018-08-30T22:17:46.767Z,18.00
2018-08-30T22:20:17.371Z,18.00
2018-08-30T22:22:48.528Z,17.90
2018-08-30T22:25:20.034Z,17.90
2018-08-30T22:27:50.383Z,17.90
2018-08-30T22:30:22.093Z,17.80
2018-08-30T22:32:53.273Z,17.80
2018-08-30T22:35:25.414Z,17.80
2018-08-30T22:37:56.269Z,17.70
2018-08-30T22:40:26.706Z,17.60
2018-08-30T22:42:57.084Z,17.60
2018-08-30T22:45:27.361Z,17.60
2018-08-30T22:47:57.749Z,17.60
2018-08-30T22:50:28.735Z,17.60
2018-08-30T22:52:59.037Z,17.50
2018-08-30T22:55:29.868Z,17.50
2018-08-30T22:58:00.353Z,17.50
2018-08-30T23:00:31.127Z,17.50
2018-08-30T23:03:01.426Z,17.40
2018-08-30T23:05:32.648Z,17.40
2018-08-30T23:08:02.973Z,17.40
2018-08-30T23:10:34.181Z,17.40
2018-08-30T23:13:04.527Z,17.40
2018-08-30T23:15:35.079Z,17.30
2018-08-30T23:18:05.552Z,17.30
2018-08-30T23:20:35.908Z,17.20
2018-08-30T23:23:06.264Z,17.20
2018-08-30T23:25:36.816Z,17.10
2018-08-30T23:28:07.812Z,17.10
2018-08-30T23:30:38.165Z,17.10
2018-08-30T23:33:08.416Z,17.10
2018-08-30T23:35:38.735Z,17.10
2018-08-30T23:38:09.032Z,17.00
2018-08-30T23:40:40.109Z,17.00
2018-08-30T23:43:10.561Z,16.90
2018-08-30T23:45:40.873Z,16.90
2018-08-30T23:48:11.208Z,16.90
2018-08-30T23:50:42.740Z,16.80
2018-08-30T23:53:13.448Z,16.80
2018-08-30T23:55:44.208Z,16.80
2018-08-30T23:58:31.332Z,16.80
